createdAt,value
2022-08-30T00:00:51.089Z,4.38
2022-08-30T00:03:15.879Z,4.07
2022-08-30T00:05:40.314Z,4.18
2022-08-30T00:08:04.631Z,4.53
2022-08-30T00:10:30.996Z,4.82
2022-08-30T00:12:54.944Z,4.18
2022-08-30T00:15:19.791Z,4.32
2022-08-30T00:17:43.903Z,3.63
2022-08-30T00:20:12.641Z,4.15
2022-08-30T00:22:39.771Z,3.92
2022-08-30T00:25:03.415Z,4.18
2022-08-30T00:27:28.439Z,4.45
2022-08-30T00:29:52.109Z,4.65
2022-08-30T00:32:16.338Z,4.03
2022-08-30T00:34:40.066Z,4.30
2022-08-30T00:37:03.691Z,4.80
2022-08-30T00:39:27.627Z,4.22
2022-08-30T00:41:51.319Z,4.15
2022-08-30T00:44:16.465Z,4.03
2022-08-30T00:46:40.068Z,4.35
2022-08-30T00:49:08.238Z,4.13
2022-08-30T00:51:33.473Z,4.45
2022-08-30T00:53:59.226Z,4.50
2022-08-30T00:56:24.586Z,4.07
2022-08-30T00:58:51.970Z,3.92
2022-08-30T01:01:17.843Z,4.03
2022-08-30T01:03:43.410Z,4.45
2022-08-30T01:06:08.706Z,3.63
2022-08-30T01:08:32.461Z,3.92
2022-08-30T01:10:58.017Z,3.85
2022-08-30T01:13:22.719Z,3.58
2022-08-30T01:15:47.159Z,3.70
2022-08-30T01:18:13.240Z,3.90
2022-08-30T01:20:46.209Z,3.83
2022-08-30T01:23:15.665Z,4.07
2022-08-30T01:25:42.387Z,3.60
2022-08-30T01:28:09.426Z,3.50
2022-08-30T01:30:34.042Z,3.30
2022-08-30T01:33:01.535Z,3.47
2022-08-30T01:35:30.071Z,3.63
2022-08-30T01:37:53.644Z,3.38
2022-08-30T01:40:19.756Z,4.03
2022-08-30T01:42:43.913Z,3.53
2022-08-30T01:45:10.069Z,3.88
2022-08-30T01:47:34.053Z,3.88
2022-08-30T01:49:58.350Z,3.70
2022-08-30T01:52:22.820Z,3.30
2022-08-30T01:54:48.109Z,3.53
2022-08-30T01:57:17.230Z,3.65
2022-08-30T01:59:43.614Z,3.78
2022-08-30T02:02:08.252Z,3.67
2022-08-30T02:04:32.100Z,3.65
2022-08-30T02:06:55.636Z,3.80
2022-08-30T02:09:19.213Z,3.55
2022-08-30T02:11:43.620Z,4.07
2022-08-30T02:14:08.605Z,3.78
2022-08-30T02:16:34.536Z,3.92
2022-08-30T02:18:58.417Z,4.07
2022-08-30T02:21:22.508Z,3.88
2022-08-30T02:23:46.937Z,3.90
2022-08-30T02:26:11.977Z,3.75
2022-08-30T02:28:35.723Z,3.50
2022-08-30T02:31:14.378Z,4.32
2022-08-30T02:33:38.089Z,3.50
2022-08-30T02:36:04.816Z,4.10
2022-08-30T02:38:28.495Z,3.63
2022-08-30T02:40:52.989Z,3.38
2022-08-30T02:43:17.563Z,3.78
2022-08-30T02:45:41.338Z,3.42
2022-08-30T02:48:06.878Z,3.92
2022-08-30T02:50:31.241Z,3.88
2022-08-30T02:52:56.033Z,3.80
2022-08-30T02:55:20.290Z,3.88
2022-08-30T02:57:44.573Z,3.90
2022-08-30T03:00:10.921Z,3.45
2022-08-30T03:02:34.594Z,3.67
2022-08-30T03:04:59.560Z,3.50
2022-08-30T03:07:23.116Z,3.28
2022-08-30T03:09:46.872Z,3.55
2022-08-30T03:12:11.342Z,3.80
2022-08-30T03:14:36.661Z,3.17
2022-08-30T03:17:00.225Z,3.70
2022-08-30T03:19:25.046Z,3.90
2022-08-30T03:21:50.665Z,3.63
2022-08-30T03:24:14.702Z,3.42
2022-08-30T03:26:40.364Z,3.63
2022-08-30T03:29:06.878Z,3.55
2022-08-30T03:31:30.694Z,4.00
2022-08-30T03:34:01.775Z,3.50
2022-08-30T03:36:28.307Z,3.55
2022-08-30T03:38:53.713Z,3.50
2022-08-30T03:41:17.293Z,3.35
2022-08-30T03:43:40.807Z,3.38
2022-08-30T03:46:08.889Z,3.20
2022-08-30T03:48:33.004Z,3.92
2022-08-30T03:50:56.510Z,3.70
2022-08-30T03:53:20.338Z,3.55
2022-08-30T03:55:45.331Z,3.60
2022-08-30T03:58:10.088Z,3.75
2022-08-30T04:00:33.806Z,3.20
2022-08-30T04:02:57.352Z,3.90
2022-08-30T04:05:21.696Z,3.83
2022-08-30T04:07:45.908Z,3.65
2022-08-30T04:10:11.988Z,3.65
2022-08-30T04:12:38.723Z,3.47
2022-08-30T04:15:02.517Z,4.20
2022-08-30T04:17:26.516Z,4.05
2022-08-30T04:19:50.183Z,4.00
2022-08-30T04:22:13.885Z,4.68
2022-08-30T04:24:38.423Z,3.78
2022-08-30T04:27:02.375Z,4.43
2022-08-30T04:29:27.576Z,4.15
2022-08-30T04:31:51.280Z,4.43
2022-08-30T04:34:15.469Z,4.10
2022-08-30T04:36:39.208Z,4.25
2022-08-30T04:39:02.753Z,3.70
2022-08-30T04:41:26.464Z,4.28
2022-08-30T04:43:50.515Z,4.25
2022-08-30T04:46:16.317Z,4.07
2022-08-30T04:48:40.467Z,4.07
2022-08-30T04:51:06.660Z,4.60
2022-08-30T04:53:30.325Z,4.18
2022-08-30T04:55:53.929Z,4.25
2022-08-30T04:58:18.002Z,4.50
2022-08-30T05:00:42.169Z,4.18
2022-08-30T05:03:07.199Z,4.60
2022-08-30T05:05:43.125Z,4.57
2022-08-30T05:08:07.475Z,4.35
2022-08-30T05:10:31.191Z,4.43
2022-08-30T05:12:55.167Z,4.30
2022-08-30T05:15:20.214Z,5.00
2022-08-30T05:17:44.661Z,4.22
2022-08-30T05:20:12.650Z,4.75
2022-08-30T05:22:38.237Z,4.32
2022-08-30T05:25:01.867Z,4.28
2022-08-30T05:27:25.469Z,4.10
2022-08-30T05:29:49.098Z,4.30
2022-08-30T05:32:12.648Z,4.70
2022-08-30T05:34:36.199Z,4.60
2022-08-30T05:37:02.802Z,4.95
2022-08-30T05:39:26.903Z,5.30
2022-08-30T05:41:50.614Z,4.95
2022-08-30T05:44:14.426Z,4.70
2022-08-30T05:46:39.791Z,5.25
2022-08-30T05:49:06.106Z,5.18
2022-08-30T05:51:31.465Z,4.97
2022-08-30T05:53:59.143Z,5.40
2022-08-30T05:56:25.881Z,5.25
2022-08-30T05:58:50.302Z,5.57
2022-08-30T06:01:23.330Z,5.20
2022-08-30T06:03:47.071Z,5.57
2022-08-30T06:06:10.809Z,5.30
2022-08-30T06:08:34.457Z,5.65
2022-08-30T06:10:59.585Z,5.10
2022-08-30T06:13:23.532Z,5.05
2022-08-30T06:15:47.299Z,5.35
2022-08-30T06:18:11.022Z,5.55
2022-08-30T06:20:35.145Z,5.13
2022-08-30T06:22:59.102Z,5.22
2022-08-30T06:25:22.834Z,5.45
2022-08-30T06:27:48.054Z,5.15
2022-08-30T06:30:12.670Z,5.30
2022-08-30T06:32:36.779Z,5.35
2022-08-30T06:35:00.620Z,4.70
2022-08-30T06:37:25.611Z,5.05
2022-08-30T06:39:57.647Z,4.80
2022-08-30T06:42:22.538Z,4.72
2022-08-30T06:44:47.759Z,5.03
2022-08-30T06:47:11.531Z,5.38
2022-08-30T06:49:35.372Z,6.18
2022-08-30T06:51:59.078Z,5.55
2022-08-30T06:54:23.208Z,5.38
2022-08-30T06:57:02.674Z,5.40
2022-08-30T06:59:27.259Z,5.22
2022-08-30T07:01:52.354Z,5.20
2022-08-30T07:04:16.178Z,4.75
2022-08-30T07:06:39.827Z,5.15
2022-08-30T07:09:03.910Z,5.55
2022-08-30T07:11:32.175Z,5.25
2022-08-30T07:13:55.907Z,5.30
2022-08-30T07:16:19.553Z,5.80
2022-08-30T07:18:55.149Z,5.93
2022-08-30T07:21:23.130Z,6.20
2022-08-30T07:23:53.297Z,5.47
2022-08-30T07:26:20.494Z,5.28
2022-08-30T07:28:46.393Z,5.50
2022-08-30T07:31:11.703Z,4.82
2022-08-30T07:33:35.587Z,5.28
2022-08-30T07:36:01.778Z,5.10
2022-08-30T07:38:26.167Z,4.63
2022-08-30T07:40:54.344Z,5.22
2022-08-30T07:43:18.731Z,5.70
2022-08-30T07:45:43.041Z,5.38
2022-08-30T07:48:08.678Z,6.78
2022-08-30T07:50:32.344Z,5.70
2022-08-30T07:52:57.483Z,5.60
2022-08-30T07:55:21.143Z,5.53
2022-08-30T07:57:47.861Z,5.55
2022-08-30T08:00:12.940Z,5.78
2022-08-30T08:02:37.325Z,5.40
2022-08-30T08:05:00.995Z,5.85
2022-08-30T08:07:24.727Z,5.93
2022-08-30T08:09:49.730Z,7.32
2022-08-30T08:12:13.714Z,5.90
2022-08-30T08:14:37.712Z,5.30
2022-08-30T08:17:03.224Z,5.40
2022-08-30T08:19:26.863Z,4.53
2022-08-30T08:21:55.696Z,5.28
2022-08-30T08:24:33.107Z,5.50
2022-08-30T08:26:58.197Z,5.30
2022-08-30T08:29:22.234Z,4.53
2022-08-30T08:31:47.061Z,5.72
2022-08-30T08:34:11.760Z,4.50
2022-08-30T08:36:36.556Z,4.50
2022-08-30T08:39:00.843Z,4.28
2022-08-30T08:41:38.612Z,4.70
2022-08-30T08:44:10.277Z,3.92
2022-08-30T08:46:45.512Z,4.70
2022-08-30T08:49:10.490Z,4.13
2022-08-30T08:51:55.445Z,4.40
2022-08-30T08:54:27.145Z,4.03
2022-08-30T08:56:50.756Z,4.15
2022-08-30T08:59:18.209Z,3.97
2022-08-30T09:01:42.154Z,4.47
2022-08-30T09:04:13.334Z,4.30
2022-08-30T09:06:54.384Z,4.30
2022-08-30T09:09:23.201Z,4.20
2022-08-30T09:11:49.165Z,3.88
2022-08-30T09:14:22.341Z,4.65
2022-08-30T09:17:02.919Z,3.83
2022-08-30T09:19:34.434Z,4.50
2022-08-30T09:22:00.147Z,4.10
2022-08-30T09:24:24.531Z,3.42
2022-08-30T09:26:50.500Z,4.40
2022-08-30T09:29:21.052Z,4.22
2022-08-30T09:32:05.640Z,3.72
2022-08-30T09:34:37.914Z,4.43
2022-08-30T09:37:02.028Z,3.60
2022-08-30T09:39:32.268Z,3.90
2022-08-30T09:41:56.553Z,3.33
2022-08-30T09:44:24.548Z,4.03
2022-08-30T09:46:51.960Z,3.15
2022-08-30T09:49:35.272Z,3.50
2022-08-30T09:52:30.210Z,3.55
2022-08-30T09:55:08.524Z,3.80
2022-08-30T09:57:46.077Z,3.70
2022-08-30T10:00:19.093Z,3.78
2022-08-30T10:03:08.726Z,3.55
2022-08-30T10:05:52.791Z,3.38
2022-08-30T10:08:25.308Z,2.88
2022-08-30T10:10:54.070Z,3.30
2022-08-30T10:13:51.864Z,2.80
2022-08-30T10:16:34.160Z,4.07
2022-08-30T10:19:06.682Z,3.40
2022-08-30T10:21:38.265Z,3.67
2022-08-30T10:24:07.489Z,3.13
2022-08-30T10:26:37.661Z,3.20
2022-08-30T10:29:09.573Z,3.10
2022-08-30T10:31:42.940Z,3.05
2022-08-30T10:34:13.773Z,3.38
2022-08-30T10:36:45.569Z,3.00
2022-08-30T10:39:12.061Z,2.70
2022-08-30T10:41:44.348Z,2.67
2022-08-30T10:44:18.941Z,4.00
2022-08-30T10:47:02.647Z,3.38
2022-08-30T10:49:30.425Z,2.83
2022-08-30T10:52:01.504Z,3.28
2022-08-30T10:54:38.390Z,2.30
2022-08-30T10:57:02.499Z,2.70
2022-08-30T10:59:26.481Z,2.80
2022-08-30T11:02:31.257Z,2.80
2022-08-30T11:05:36.466Z,2.38
2022-08-30T11:08:20.551Z,2.58
2022-08-30T11:10:59.756Z,2.78
2022-08-30T11:13:26.192Z,3.03
2022-08-30T11:16:01.097Z,2.95
2022-08-30T11:18:29.900Z,3.03
2022-08-30T11:20:56.503Z,2.40
2022-08-30T11:23:33.279Z,2.60
2022-08-30T11:26:00.721Z,2.70
2022-08-30T11:29:07.649Z,2.38
2022-08-30T11:31:40.957Z,2.30
2022-08-30T11:34:07.827Z,2.67
2022-08-30T11:37:04.043Z,2.80
2022-08-30T11:40:03.805Z,2.70
2022-08-30T11:42:38.759Z,2.70
2022-08-30T11:45:52.428Z,2.50
2022-08-30T11:48:54.143Z,2.22
2022-08-30T11:52:28.881Z,2.70
2022-08-30T11:55:10.750Z,2.50
2022-08-30T11:57:49.735Z,2.47
2022-08-30T12:00:31.347Z,2.20
2022-08-30T12:03:01.105Z,2.38
2022-08-30T12:05:59.075Z,2.35
2022-08-30T12:09:03.520Z,2.83
2022-08-30T12:11:58.650Z,1.90
2022-08-30T12:14:49.090Z,2.22
2022-08-30T12:17:50.743Z,2.40
2022-08-30T12:20:41.302Z,2.15
2022-08-30T12:23:21.159Z,2.25
2022-08-30T12:25:46.652Z,2.28
2022-08-30T12:28:14.344Z,2.70
2022-08-30T12:30:40.166Z,2.67
2022-08-30T12:33:04.082Z,2.35
2022-08-30T12:35:29.450Z,1.88
2022-08-30T12:38:02.403Z,2.30
2022-08-30T12:40:28.267Z,1.73
2022-08-30T12:42:56.568Z,2.30
2022-08-30T12:45:26.102Z,2.22
2022-08-30T12:47:54.339Z,2.28
2022-08-30T12:50:23.751Z,2.55
2022-08-30T12:52:50.008Z,2.28
2022-08-30T12:55:24.976Z,2.10
2022-08-30T12:58:02.232Z,2.25
2022-08-30T13:00:28.978Z,2.40
2022-08-30T13:02:55.201Z,2.60
2022-08-30T13:05:48.144Z,2.50
2022-08-30T13:08:18.221Z,2.58
2022-08-30T13:11:04.375Z,2.33
2022-08-30T13:13:38.903Z,2.83
2022-08-30T13:16:14.521Z,2.13
2022-08-30T13:18:38.796Z,2.55
2022-08-30T13:21:25.037Z,2.78
2022-08-30T13:23:48.808Z,2.40
2022-08-30T13:26:12.655Z,2.70
2022-08-30T13:28:51.746Z,2.30
2022-08-30T13:31:15.739Z,2.50
2022-08-30T13:33:39.847Z,2.60
2022-08-30T13:36:03.994Z,2.63
2022-08-30T13:38:27.571Z,2.83
2022-08-30T13:40:51.935Z,2.75
2022-08-30T13:43:15.754Z,2.78
2022-08-30T13:45:41.790Z,2.67
2022-08-30T13:48:07.480Z,2.83
2022-08-30T13:50:31.039Z,2.58
2022-08-30T13:52:54.590Z,2.50
2022-08-30T13:55:18.454Z,2.45
2022-08-30T13:57:58.004Z,2.60
2022-08-30T14:00:22.478Z,2.78
2022-08-30T14:02:54.846Z,2.65
2022-08-30T14:08:02.734Z,2.80
2022-08-30T14:10:31.231Z,2.47
2022-08-30T14:13:00.598Z,2.65
2022-08-30T14:15:26.383Z,2.63
2022-08-30T14:17:52.868Z,2.63
2022-08-30T14:20:17.794Z,2.58
2022-08-30T14:22:42.003Z,2.60
2022-08-30T14:25:07.805Z,2.50
2022-08-30T14:27:32.401Z,2.70
2022-08-30T14:29:56.147Z,2.75
2022-08-30T14:32:19.704Z,2.80
2022-08-30T14:34:45.107Z,2.97
2022-08-30T14:37:09.288Z,2.60
2022-08-30T14:39:32.893Z,3.08
2022-08-30T14:41:57.394Z,2.63
2022-08-30T14:44:23.272Z,2.58
2022-08-30T14:46:50.942Z,2.58
2022-08-30T14:49:16.245Z,2.45
2022-08-30T14:51:42.311Z,2.67
2022-08-30T14:54:06.590Z,2.78
2022-08-30T14:56:31.454Z,2.47
2022-08-30T14:59:00.367Z,2.85
2022-08-30T15:01:24.107Z,2.45
2022-08-30T15:03:48.510Z,2.40
2022-08-30T15:06:12.731Z,2.53
2022-08-30T15:08:39.363Z,2.50
2022-08-30T15:11:08.440Z,2.20
2022-08-30T15:13:32.034Z,2.60
2022-08-30T15:15:55.828Z,2.85
2022-08-30T15:18:20.526Z,2.40
2022-08-30T15:20:47.938Z,2.75
2022-08-30T15:23:12.170Z,2.80
2022-08-30T15:25:43.535Z,2.42
2022-08-30T15:28:07.218Z,2.50
2022-08-30T15:30:31.716Z,2.38
2022-08-30T15:32:55.282Z,2.25
2022-08-30T15:35:19.691Z,2.78
2022-08-30T15:37:46.396Z,2.30
2022-08-30T15:40:12.264Z,2.67
2022-08-30T15:42:38.332Z,2.65
2022-08-30T15:45:02.950Z,2.60
2022-08-30T15:47:27.749Z,2.33
2022-08-30T15:49:57.740Z,2.60
2022-08-30T15:52:27.190Z,2.17
2022-08-30T15:54:51.323Z,2.40
2022-08-30T15:57:15.341Z,2.20
2022-08-30T15:59:41.007Z,2.20
2022-08-30T16:02:05.014Z,2.30
2022-08-30T16:04:29.414Z,2.17
2022-08-30T16:06:53.106Z,2.40
2022-08-30T16:09:17.694Z,2.30
2022-08-30T16:11:41.992Z,2.10
2022-08-30T16:14:06.591Z,2.35
2022-08-30T16:16:33.303Z,2.47
2022-08-30T16:18:59.221Z,2.25
2022-08-30T16:21:25.531Z,2.40
2022-08-30T16:23:49.440Z,2.28
2022-08-30T16:26:17.422Z,1.95
2022-08-30T16:28:41.966Z,2.58
2022-08-30T16:31:08.209Z,2.40
2022-08-30T16:33:37.185Z,2.10
2022-08-30T16:36:02.908Z,2.33
2022-08-30T16:38:28.303Z,2.13
2022-08-30T16:40:53.203Z,2.17
2022-08-30T16:43:17.597Z,2.30
2022-08-30T16:45:43.245Z,2.08
2022-08-30T16:48:07.458Z,2.00
2022-08-30T16:50:33.368Z,2.53
2022-08-30T16:52:57.192Z,2.35
2022-08-30T16:55:21.340Z,2.22
2022-08-30T16:57:45.737Z,2.30
2022-08-30T17:00:13.105Z,2.40
2022-08-30T17:02:37.332Z,2.20
2022-08-30T17:05:00.978Z,2.00
2022-08-30T17:07:26.224Z,2.30
2022-08-30T17:09:52.985Z,2.20
2022-08-30T17:12:16.592Z,2.22
2022-08-30T17:14:40.903Z,1.90
2022-08-30T17:17:04.845Z,1.80
2022-08-30T17:19:28.766Z,2.10
2022-08-30T17:21:52.553Z,2.05
2022-08-30T17:24:17.502Z,1.63
2022-08-30T17:26:42.405Z,2.10
2022-08-30T17:29:07.825Z,1.95
2022-08-30T17:31:31.895Z,2.05
2022-08-30T17:34:00.564Z,1.85
2022-08-30T17:36:24.995Z,2.65
2022-08-30T17:38:48.712Z,1.67
2022-08-30T17:41:14.699Z,1.85
2022-08-30T17:43:39.410Z,2.30
2022-08-30T17:46:09.719Z,1.95
2022-08-30T17:48:33.404Z,2.40
2022-08-30T17:50:57.516Z,1.98
2022-08-30T17:53:21.138Z,2.55
2022-08-30T17:55:50.069Z,1.95
2022-08-30T17:58:15.475Z,2.10
2022-08-30T18:00:39.189Z,1.80
2022-08-30T18:03:04.324Z,1.80
2022-08-30T18:05:29.917Z,1.85
2022-08-30T18:07:56.463Z,2.00
2022-08-30T18:10:28.509Z,1.92
2022-08-30T18:12:57.980Z,1.88
2022-08-30T18:15:23.085Z,2.20
2022-08-30T18:17:49.037Z,1.85
2022-08-30T18:20:13.404Z,1.52
2022-08-30T18:22:37.724Z,1.80
2022-08-30T18:25:02.737Z,2.10
2022-08-30T18:27:28.321Z,2.03
2022-08-30T18:29:52.064Z,1.63
2022-08-30T18:32:17.903Z,1.95
2022-08-30T18:34:43.957Z,2.08
2022-08-30T18:37:11.429Z,2.03
2022-08-30T18:39:36.211Z,2.10
2022-08-30T18:42:00.245Z,1.92
2022-08-30T18:44:28.312Z,2.60
2022-08-30T18:46:56.636Z,2.22
2022-08-30T18:49:21.861Z,2.58
2022-08-30T18:51:45.706Z,2.65
2022-08-30T18:54:09.322Z,2.67
2022-08-30T18:56:33.398Z,2.75
2022-08-30T18:58:56.942Z,2.65
2022-08-30T19:01:22.914Z,2.63
2022-08-30T19:03:47.223Z,2.80
2022-08-30T19:06:13.948Z,2.45
2022-08-30T19:08:37.820Z,2.53
2022-08-30T19:11:05.116Z,2.70
2022-08-30T19:13:31.672Z,2.22
2022-08-30T19:15:55.963Z,2.53
2022-08-30T19:18:19.865Z,2.30
2022-08-30T19:20:44.148Z,2.30
2022-08-30T19:23:22.996Z,2.25
2022-08-30T19:25:47.326Z,2.92
2022-08-30T19:28:17.139Z,2.30
2022-08-30T19:30:41.016Z,2.40
2022-08-30T19:33:07.322Z,2.20
2022-08-30T19:35:35.134Z,2.38
2022-08-30T19:37:59.448Z,2.33
2022-08-30T19:40:25.507Z,2.50
2022-08-30T19:42:51.501Z,2.15
2022-08-30T19:45:21.504Z,2.22
2022-08-30T19:47:46.078Z,2.30
2022-08-30T19:50:11.006Z,2.38
2022-08-30T19:52:34.884Z,2.00
2022-08-30T19:54:59.330Z,2.10
2022-08-30T19:57:24.390Z,2.25
2022-08-30T19:59:48.051Z,2.00
2022-08-30T20:02:13.677Z,2.40
2022-08-30T20:04:40.847Z,2.40
2022-08-30T20:07:07.692Z,2.33
2022-08-30T20:09:31.468Z,2.15
2022-08-30T20:11:57.308Z,1.90
2022-08-30T20:14:25.973Z,2.20
2022-08-30T20:16:51.406Z,2.33
2022-08-30T20:19:17.090Z,2.00
2022-08-30T20:21:42.145Z,2.33
2022-08-30T20:24:09.672Z,1.80
2022-08-30T20:26:34.596Z,2.17
2022-08-30T20:29:00.309Z,2.05
2022-08-30T20:31:25.855Z,2.17
2022-08-30T20:33:50.040Z,2.33
2022-08-30T20:36:16.195Z,2.20
2022-08-30T20:38:40.968Z,2.03
2022-08-30T20:41:11.969Z,2.40
2022-08-30T20:43:35.488Z,2.00
2022-08-30T20:45:59.331Z,2.10
2022-08-30T20:48:28.589Z,2.40
2022-08-30T20:50:52.098Z,2.13
2022-08-30T20:53:16.372Z,2.55
2022-08-30T20:55:42.463Z,2.50
2022-08-30T20:58:06.374Z,2.58
2022-08-30T21:00:29.875Z,2.38
2022-08-30T21:02:53.460Z,2.30
2022-08-30T21:05:19.535Z,2.35
2022-08-30T21:07:43.497Z,2.45
2022-08-30T21:10:08.407Z,2.47
2022-08-30T21:12:32.055Z,2.55
2022-08-30T21:14:55.769Z,2.67
2022-08-30T21:17:19.809Z,2.38
2022-08-30T21:19:44.195Z,2.13
2022-08-30T21:22:09.232Z,2.25
2022-08-30T21:24:32.949Z,2.22
2022-08-30T21:26:57.040Z,2.13
2022-08-30T21:29:20.726Z,2.00
2022-08-30T21:31:44.783Z,2.05
2022-08-30T21:34:15.880Z,2.03
2022-08-30T21:36:46.294Z,2.17
2022-08-30T21:39:13.757Z,2.00
2022-08-30T21:41:38.930Z,2.42
2022-08-30T21:44:05.558Z,1.98
2022-08-30T21:46:37.419Z,1.90
2022-08-30T21:49:03.175Z,2.15
2022-08-30T21:51:26.900Z,2.67
2022-08-30T21:53:50.603Z,2.42
2022-08-30T21:56:21.625Z,1.92
2022-08-30T21:58:46.477Z,2.10
2022-08-30T22:01:11.350Z,2.22
2022-08-30T22:03:35.046Z,2.00
2022-08-30T22:05:58.614Z,2.17
2022-08-30T22:08:22.198Z,2.03
2022-08-30T22:10:45.917Z,2.00
2022-08-30T22:13:13.048Z,2.05
2022-08-30T22:15:37.128Z,2.15
2022-08-30T22:18:01.700Z,2.08
2022-08-30T22:20:25.296Z,1.90
2022-08-30T22:22:53.824Z,1.88
2022-08-30T22:25:17.461Z,1.85
2022-08-30T22:27:41.024Z,1.80
2022-08-30T22:30:07.288Z,1.95
2022-08-30T22:32:30.797Z,1.90
2022-08-30T22:34:54.531Z,2.05
2022-08-30T22:37:18.211Z,1.90
2022-08-30T22:39:41.768Z,2.15
2022-08-30T22:42:05.559Z,2.28
2022-08-30T22:44:29.183Z,1.90
2022-08-30T22:46:54.095Z,2.08
2022-08-30T22:49:17.708Z,2.17
2022-08-30T22:51:42.810Z,2.28
2022-08-30T22:54:09.596Z,2.40
2022-08-30T22:56:35.900Z,2.10
2022-08-30T22:58:59.915Z,2.20
2022-08-30T23:01:27.773Z,2.25
2022-08-30T23:03:53.636Z,1.98
2022-08-30T23:06:17.254Z,2.30
2022-08-30T23:08:40.834Z,2.20
2022-08-30T23:11:04.318Z,2.83
2022-08-30T23:13:27.986Z,2.28
2022-08-30T23:15:51.526Z,2.22
2022-08-30T23:18:15.026Z,2.40
2022-08-30T23:20:40.155Z,2.20
2022-08-30T23:23:02.585Z,2.53
2022-08-30T23:25:46.076Z,2.42
2022-08-30T23:28:33.620Z,2.50
2022-08-30T23:31:14.985Z,2.25
2022-08-30T23:33:56.112Z,2.53
2022-08-30T23:36:38.567Z,2.80
2022-08-30T23:39:21.756Z,2.20
2022-08-30T23:42:02.763Z,2.55
2022-08-30T23:44:43.788Z,2.20
2022-08-30T23:47:28.364Z,2.03
2022-08-30T23:50:14.120Z,2.47
2022-08-30T23:52:56.536Z,2.55
2022-08-30T23:55:37.927Z,2.67
2022-08-30T23:58:18.997Z,2.53
